sensor_id;sensor_type;location;lat;lon;timestamp;pressure;altitude;pressure_sealevel;temperature
14666;BMP280;7420;53.574;10.040;2022-10-13T00:01:25;102017.19;;;9.29
14666;BMP280;7420;53.574;10.040;2022-10-13T00:03:51;102019.72;;;9.31
14666;BMP280;7420;53.574;10.040;2022-10-13T00:06:18;102016.06;;;9.24
14666;BMP280;7420;53.574;10.040;2022-10-13T00:08:44;102015.22;;;9.23
14666;BMP280;7420;53.574;10.040;2022-10-13T00:11:15;102009.44;;;9.20
14666;BMP280;7420;53.574;10.040;2022-10-13T00:13:41;102002.66;;;9.17
14666;BMP280;7420;53.574;10.040;2022-10-13T00:16:08;102011.09;;;9.21
14666;BMP280;7420;53.574;10.040;2022-10-13T00:18:33;102006.47;;;9.15
14666;BMP280;7420;53.574;10.040;2022-10-13T00:20:59;102003.81;;;9.15
14666;BMP280;7420;53.574;10.040;2022-10-13T00:23:24;102006.97;;;9.18
14666;BMP280;7420;53.574;10.040;2022-10-13T00:25:49;102007.13;;;9.09
14666;BMP280;7420;53.574;10.040;2022-10-13T00:28:17;102000.53;;;8.97
14666;BMP280;7420;53.574;10.040;2022-10-13T00:30:43;101995.22;;;8.97
14666;BMP280;7420;53.574;10.040;2022-10-13T00:33:09;101998.53;;;8.99
14666;BMP280;7420;53.574;10.040;2022-10-13T00:35:44;101999.69;;;9.05
14666;BMP280;7420;53.574;10.040;2022-10-13T00:38:10;101995.38;;;9.04
14666;BMP280;7420;53.574;10.040;2022-10-13T00:40:46;101998.50;;;9.15
14666;BMP280;7420;53.574;10.040;2022-10-13T00:46:07;101993.88;;;9.09
14666;BMP280;7420;53.574;10.040;2022-10-13T00:48:33;101986.91;;;9.08
14666;BMP280;7420;53.574;10.040;2022-10-13T00:50:58;101983.59;;;9.06
14666;BMP280;7420;53.574;10.040;2022-10-13T00:53:26;101989.75;;;8.99
14666;BMP280;7420;53.574;10.040;2022-10-13T00:55:53;101991.06;;;8.95
14666;BMP280;7420;53.574;10.040;2022-10-13T00:58:21;101982.31;;;8.86
14666;BMP280;7420;53.574;10.040;2022-10-13T01:00:49;101981.63;;;8.92
14666;BMP280;7420;53.574;10.040;2022-10-13T01:03:16;101982.63;;;8.83
14666;BMP280;7420;53.574;10.040;2022-10-13T01:05:42;101984.13;;;8.86
14666;BMP280;7420;53.574;10.040;2022-10-13T01:13:38;101977.50;;;8.82
14666;BMP280;7420;53.574;10.040;2022-10-13T01:16:45;101976.19;;;8.78
14666;BMP280;7420;53.574;10.040;2022-10-13T01:22:28;101967.91;;;8.57
14666;BMP280;7420;53.574;10.040;2022-10-13T01:28:07;101973.53;;;8.62
14666;BMP280;7420;53.574;10.040;2022-10-13T01:30:45;101963.59;;;8.56
14666;BMP280;7420;53.574;10.040;2022-10-13T01:33:42;101971.84;;;8.45
14666;BMP280;7420;53.574;10.040;2022-10-13T01:36:20;101976.50;;;8.27
14666;BMP280;7420;53.574;10.040;2022-10-13T01:38:58;101970.03;;;8.37
14666;BMP280;7420;53.574;10.040;2022-10-13T01:41:34;101961.75;;;8.32
14666;BMP280;7420;53.574;10.040;2022-10-13T01:44:02;101962.94;;;8.38
14666;BMP280;7420;53.574;10.040;2022-10-13T01:46:35;101961.44;;;8.19
14666;BMP280;7420;53.574;10.040;2022-10-13T01:49:04;101962.38;;;8.10
14666;BMP280;7420;53.574;10.040;2022-10-13T01:51:31;101956.22;;;7.94
14666;BMP280;7420;53.574;10.040;2022-10-13T01:53:57;101947.63;;;8.08
14666;BMP280;7420;53.574;10.040;2022-10-13T01:56:23;101950.94;;;8.10
14666;BMP280;7420;53.574;10.040;2022-10-13T01:58:49;101945.63;;;7.94
14666;BMP280;7420;53.574;10.040;2022-10-13T02:06:23;101947.28;;;7.95
14666;BMP280;7420;53.574;10.040;2022-10-13T02:08:57;101937.34;;;8.05
14666;BMP280;7420;53.574;10.040;2022-10-13T02:11:26;101945.44;;;7.95
14666;BMP280;7420;53.574;10.040;2022-10-13T02:16:21;101944.97;;;8.00
14666;BMP280;7420;53.574;10.040;2022-10-13T02:18:48;101940.00;;;7.97
14666;BMP280;7420;53.574;10.040;2022-10-13T02:21:15;101942.13;;;7.93
14666;BMP280;7420;53.574;10.040;2022-10-13T02:23:41;101940.31;;;7.94
14666;BMP280;7420;53.574;10.040;2022-10-13T02:26:08;101936.03;;;8.01
14666;BMP280;7420;53.574;10.040;2022-10-13T02:28:35;101937.03;;;8.00
14666;BMP280;7420;53.574;10.040;2022-10-13T02:31:01;101930.06;;;8.07
14666;BMP280;7420;53.574;10.040;2022-10-13T02:33:26;101922.81;;;8.01
14666;BMP280;7420;53.574;10.040;2022-10-13T02:35:52;101910.88;;;8.05
14666;BMP280;7420;53.574;10.040;2022-10-13T02:38:17;101923.78;;;8.00
14666;BMP280;7420;53.574;10.040;2022-10-13T02:40:42;101919.16;;;8.10
14666;BMP280;7420;53.574;10.040;2022-10-13T02:43:08;101915.16;;;8.06
14666;BMP280;7420;53.574;10.040;2022-10-13T02:45:33;101914.34;;;7.97
14666;BMP280;7420;53.574;10.040;2022-10-13T02:47:58;101911.38;;;8.00
14666;BMP280;7420;53.574;10.040;2022-10-13T02:50:23;101911.38;;;8.00
14666;BMP280;7420;53.574;10.040;2022-10-13T02:52:49;101911.84;;;8.04
14666;BMP280;7420;53.574;10.040;2022-10-13T02:55:14;101915.84;;;8.08
14666;BMP280;7420;53.574;10.040;2022-10-13T02:57:40;101909.41;;;8.10
14666;BMP280;7420;53.574;10.040;2022-10-13T03:00:06;101906.91;;;8.09
14666;BMP280;7420;53.574;10.040;2022-10-13T03:02:31;101912.84;;;8.11
14666;BMP280;7420;53.574;10.040;2022-10-13T03:04:57;101911.88;;;8.12
14666;BMP280;7420;53.574;10.040;2022-10-13T03:07:22;101901.31;;;8.20
14666;BMP280;7420;53.574;10.040;2022-10-13T03:09:48;101904.09;;;8.10
14666;BMP280;7420;53.574;10.040;2022-10-13T03:12:13;101889.69;;;8.05
14666;BMP280;7420;53.574;10.040;2022-10-13T03:14:38;101897.19;;;8.17
14666;BMP280;7420;53.574;10.040;2022-10-13T03:17:04;101897.50;;;8.14
14666;BMP280;7420;53.574;10.040;2022-10-13T03:19:29;101893.16;;;7.97
14666;BMP280;7420;53.574;10.040;2022-10-13T03:21:54;101890.69;;;7.96
14666;BMP280;7420;53.574;10.040;2022-10-13T03:24:20;101893.63;;;7.85
14666;BMP280;7420;53.574;10.040;2022-10-13T03:26:45;101882.41;;;7.91
14666;BMP280;7420;53.574;10.040;2022-10-13T03:29:13;101891.97;;;7.84
14666;BMP280;7420;53.574;10.040;2022-10-13T03:31:39;101895.59;;;7.75
14666;BMP280;7420;53.574;10.040;2022-10-13T03:34:04;101894.94;;;7.73
14666;BMP280;7420;53.574;10.040;2022-10-13T03:36:29;101892.13;;;7.75
14666;BMP280;7420;53.574;10.040;2022-10-13T03:38:55;101890.47;;;7.74
14666;BMP280;7420;53.574;10.040;2022-10-13T03:41:20;101892.13;;;7.75
14666;BMP280;7420;53.574;10.040;2022-10-13T03:43:46;101896.13;;;7.79
14666;BMP280;7420;53.574;10.040;2022-10-13T03:46:13;101891.97;;;7.76
14666;BMP280;7420;53.574;10.040;2022-10-13T03:48:39;101883.72;;;7.87
14666;BMP280;7420;53.574;10.040;2022-10-13T03:51:06;101892.63;;;7.78
14666;BMP280;7420;53.574;10.040;2022-10-13T03:53:32;101889.31;;;7.76
14666;BMP280;7420;53.574;10.040;2022-10-13T03:55:57;101889.66;;;7.81
14666;BMP280;7420;53.574;10.040;2022-10-13T03:58:23;101885.53;;;7.87
14666;BMP280;7420;53.574;10.040;2022-10-13T04:00:50;101895.59;;;7.75
14666;BMP280;7420;53.574;10.040;2022-10-13T04:03:16;101885.69;;;7.77
14666;BMP280;7420;53.574;10.040;2022-10-13T04:05:42;101900.06;;;7.75
14666;BMP280;7420;53.574;10.040;2022-10-13T04:08:08;101895.25;;;7.70
14666;BMP280;7420;53.574;10.040;2022-10-13T04:10:33;101892.47;;;7.72
14666;BMP280;7420;53.574;10.040;2022-10-13T04:12:59;101894.28;;;7.79
14666;BMP280;7420;53.574;10.040;2022-10-13T04:15:24;101897.25;;;7.76
14666;BMP280;7420;53.574;10.040;2022-10-13T04:17:50;101885.53;;;7.79
14666;BMP280;7420;53.574;10.040;2022-10-13T04:20:15;101886.03;;;7.90
14666;BMP280;7420;53.574;10.040;2022-10-13T04:22:40;101885.00;;;7.75
14666;BMP280;7420;53.574;10.040;2022-10-13T04:25:06;101882.72;;;7.88
14666;BMP280;7420;53.574;10.040;2022-10-13T04:27:31;101891.81;;;7.86
14666;BMP280;7420;53.574;10.040;2022-10-13T04:29:57;101882.69;;;7.72
14666;BMP280;7420;53.574;10.040;2022-10-13T04:32:23;101883.84;;;7.70
14666;BMP280;7420;53.574;10.040;2022-10-13T04:37:13;101887.00;;;7.81
14666;BMP280;7420;53.574;10.040;2022-10-13T04:39:39;101874.75;;;7.80
14666;BMP280;7420;53.574;10.040;2022-10-13T04:42:04;101879.03;;;7.73
14666;BMP280;7420;53.574;10.040;2022-10-13T04:44:29;101865.66;;;7.75
14666;BMP280;7420;53.574;10.040;2022-10-13T04:46:55;101874.13;;;7.86
14666;BMP280;7420;53.574;10.040;2022-10-13T04:49:20;101879.03;;;7.73
14666;BMP280;7420;53.574;10.040;2022-10-13T04:51:46;101884.34;;;7.73
14666;BMP280;7420;53.574;10.040;2022-10-13T04:54:11;101883.69;;;7.79
14666;BMP280;7420;53.574;10.040;2022-10-13T04:56:37;101874.41;;;7.67
14666;BMP280;7420;53.574;10.040;2022-10-13T04:59:02;101877.72;;;7.69
14666;BMP280;7420;53.574;10.040;2022-10-13T05:01:30;101874.41;;;7.59
14666;BMP280;7420;53.574;10.040;2022-10-13T05:03:58;101873.25;;;7.70
14666;BMP280;7420;53.574;10.040;2022-10-13T05:06:25;101865.81;;;7.73
14666;BMP280;7420;53.574;10.040;2022-10-13T05:08:51;101863.50;;;7.78
14666;BMP280;7420;53.574;10.040;2022-10-13T05:11:17;101868.97;;;7.85
14666;BMP280;7420;53.574;10.040;2022-10-13T05:13:44;101865.03;;;7.81
14666;BMP280;7420;53.574;10.040;2022-10-13T05:16:11;101854.44;;;7.81
14666;BMP280;7420;53.574;10.040;2022-10-13T05:18:37;101862.16;;;7.74
14666;BMP280;7420;53.574;10.040;2022-10-13T05:21:12;101864.66;;;7.68
14666;BMP280;7420;53.574;10.040;2022-10-13T05:23:38;101854.41;;;7.73
14666;BMP280;7420;53.574;10.040;2022-10-13T05:26:07;101854.88;;;7.68
14666;BMP280;7420;53.574;10.040;2022-10-13T05:28:32;101853.22;;;7.67
14666;BMP280;7420;53.574;10.040;2022-10-13T05:33:35;101841.66;;;7.68
14666;BMP280;7420;53.574;10.040;2022-10-13T05:36:03;101844.97;;;7.70
14666;BMP280;7420;53.574;10.040;2022-10-13T05:38:29;101840.66;;;7.69
14666;BMP280;7420;53.574;10.040;2022-10-13T05:40:54;101840.84;;;7.68
14666;BMP280;7420;53.574;10.040;2022-10-13T05:43:19;101845.81;;;7.71
14666;BMP280;7420;53.574;10.040;2022-10-13T05:45:44;101831.41;;;7.73
14666;BMP280;7420;53.574;10.040;2022-10-13T05:48:10;101847.94;;;7.75
14666;BMP280;7420;53.574;10.040;2022-10-13T05:50:35;101838.34;;;7.74
14666;BMP280;7420;53.574;10.040;2022-10-13T05:53:01;101818.34;;;7.72
14666;BMP280;7420;53.574;10.040;2022-10-13T05:55:26;101815.72;;;7.80
14666;BMP280;7420;53.574;10.040;2022-10-13T05:57:52;101807.25;;;7.84
14666;BMP280;7420;53.574;10.040;2022-10-13T06:00:18;101810.09;;;7.83
14666;BMP280;7420;53.574;10.040;2022-10-13T06:02:49;101809.25;;;7.90
14666;BMP280;7420;53.574;10.040;2022-10-13T06:05:18;101805.78;;;7.74
14666;BMP280;7420;53.574;10.040;2022-10-13T06:07:44;101801.28;;;7.74
14666;BMP280;7420;53.574;10.040;2022-10-13T06:10:10;101797.84;;;7.74
14666;BMP280;7420;53.574;10.040;2022-10-13T06:12:36;101806.94;;;8.03
14666;BMP280;7420;53.574;10.040;2022-10-13T06:15:02;101801.13;;;7.99
14666;BMP280;7420;53.574;10.040;2022-10-13T06:17:27;101797.50;;;8.00
14666;BMP280;7420;53.574;10.040;2022-10-13T06:19:52;101801.00;;;8.25
14666;BMP280;7420;53.574;10.040;2022-10-13T06:22:18;101805.59;;;8.15
14666;BMP280;7420;53.574;10.040;2022-10-13T06:24:43;101809.91;;;8.16
14666;BMP280;7420;53.574;10.040;2022-10-13T06:27:09;101809.91;;;8.08
14666;BMP280;7420;53.574;10.040;2022-10-13T06:29:35;101814.88;;;7.95
14666;BMP280;7420;53.574;10.040;2022-10-13T06:32:00;101805.78;;;7.97
14666;BMP280;7420;53.574;10.040;2022-10-13T06:34:25;101809.91;;;7.92
14666;BMP280;7420;53.574;10.040;2022-10-13T06:36:51;101811.25;;;7.96
14666;BMP280;7420;53.574;10.040;2022-10-13T06:39:16;101802.28;;;8.05
14666;BMP280;7420;53.574;10.040;2022-10-13T06:41:42;101807.09;;;8.09
14666;BMP280;7420;53.574;10.040;2022-10-13T06:46:52;101821.00;;;8.11
14666;BMP280;7420;53.574;10.040;2022-10-13T06:49:18;101821.16;;;8.10
14666;BMP280;7420;53.574;10.040;2022-10-13T06:51:45;101818.19;;;8.13
14666;BMP280;7420;53.574;10.040;2022-10-13T06:54:10;101827.47;;;8.25
14666;BMP280;7420;53.574;10.040;2022-10-13T06:56:35;101829.47;;;8.23
14666;BMP280;7420;53.574;10.040;2022-10-13T06:59:00;101827.47;;;8.33
14666;BMP280;7420;53.574;10.040;2022-10-13T07:01:26;101822.66;;;8.44
14666;BMP280;7420;53.574;10.040;2022-10-13T07:03:51;101819.47;;;8.49
14666;BMP280;7420;53.574;10.040;2022-10-13T07:06:17;101814.88;;;8.43
14666;BMP280;7420;53.574;10.040;2022-10-13T07:08:43;101812.84;;;8.61
14666;BMP280;7420;53.574;10.040;2022-10-13T07:11:13;101807.84;;;8.74
14666;BMP280;7420;53.574;10.040;2022-10-13T07:13:39;101800.88;;;8.73
14666;BMP280;7420;53.574;10.040;2022-10-13T07:16:05;101804.53;;;8.72
14666;BMP280;7420;53.574;10.040;2022-10-13T07:18:31;101803.97;;;8.84
14666;BMP280;7420;53.574;10.040;2022-10-13T07:20:58;101805.78;;;8.84
14666;BMP280;7420;53.574;10.040;2022-10-13T07:23:24;101797.69;;;8.85
14666;BMP280;7420;53.574;10.040;2022-10-13T07:25:49;101803.84;;;8.78
14666;BMP280;7420;53.574;10.040;2022-10-13T07:28:14;101808.81;;;8.81
14666;BMP280;7420;53.574;10.040;2022-10-13T07:30:40;101811.75;;;8.86
14666;BMP280;7420;53.574;10.040;2022-10-13T07:33:05;101806.13;;;8.89
14666;BMP280;7420;53.574;10.040;2022-10-13T07:35:31;101799.44;;;9.01
14666;BMP280;7420;53.574;10.040;2022-10-13T07:37:56;101802.75;;;9.03
14666;BMP280;7420;53.574;10.040;2022-10-13T07:40:21;101796.06;;;9.14
14666;BMP280;7420;53.574;10.040;2022-10-13T07:42:47;101793.22;;;9.16
14666;BMP280;7420;53.574;10.040;2022-10-13T07:45:12;101786.81;;;9.11
14666;BMP280;7420;53.574;10.040;2022-10-13T07:47:38;101787.47;;;9.13
14666;BMP280;7420;53.574;10.040;2022-10-13T07:50:03;101781.69;;;9.31
14666;BMP280;7420;53.574;10.040;2022-10-13T07:52:29;101793.66;;;9.27
14666;BMP280;7420;53.574;10.040;2022-10-13T07:54:54;101793.97;;;9.32
14666;BMP280;7420;53.574;10.040;2022-10-13T07:57:20;101792.66;;;9.28
14666;BMP280;7420;53.574;10.040;2022-10-13T07:59:45;101793.63;;;9.35
14666;BMP280;7420;53.574;10.040;2022-10-13T08:02:10;101799.41;;;9.39
14666;BMP280;7420;53.574;10.040;2022-10-13T08:04:36;101789.91;;;9.44
14666;BMP280;7420;53.574;10.040;2022-10-13T08:07:03;101794.22;;;9.45
14666;BMP280;7420;53.574;10.040;2022-10-13T08:09:29;101793.28;;;9.61
14666;BMP280;7420;53.574;10.040;2022-10-13T08:11:54;101801.06;;;9.62
14666;BMP280;7420;53.574;10.040;2022-10-13T08:14:20;101792.94;;;9.64
14666;BMP280;7420;53.574;10.040;2022-10-13T08:16:46;101798.19;;;9.72
14666;BMP280;7420;53.574;10.040;2022-10-13T08:19:12;101794.66;;;9.79
14666;BMP280;7420;53.574;10.040;2022-10-13T08:21:37;101776.13;;;9.71
14666;BMP280;7420;53.574;10.040;2022-10-13T08:24:04;101775.00;;;9.88
14666;BMP280;7420;53.574;10.040;2022-10-13T08:26:30;101771.69;;;9.86
14666;BMP280;7420;53.574;10.040;2022-10-13T08:28:55;101771.22;;;10.05
14666;BMP280;7420;53.574;10.040;2022-10-13T08:31:21;101780.84;;;10.06
14666;BMP280;7420;53.574;10.040;2022-10-13T08:33:46;101776.16;;;10.08
14666;BMP280;7420;53.574;10.040;2022-10-13T08:36:13;101776.66;;;10.12
14666;BMP280;7420;53.574;10.040;2022-10-13T08:38:39;101782.06;;;10.18
14666;BMP280;7420;53.574;10.040;2022-10-13T08:43:37;101777.47;;;10.27
14666;BMP280;7420;53.574;10.040;2022-10-13T08:46:03;101772.00;;;10.42
14666;BMP280;7420;53.574;10.040;2022-10-13T08:48:32;101773.84;;;10.56
14666;BMP280;7420;53.574;10.040;2022-10-13T08:51:01;101777.97;;;10.59
14666;BMP280;7420;53.574;10.040;2022-10-13T08:53:38;101779.41;;;10.61
14666;BMP280;7420;53.574;10.040;2022-10-13T08:56:23;101766.31;;;10.60
14666;BMP280;7420;53.574;10.040;2022-10-13T08:58:51;101766.53;;;10.73
14666;BMP280;7420;53.574;10.040;2022-10-13T09:01:27;101778.03;;;10.80
14666;BMP280;7420;53.574;10.040;2022-10-13T09:06:52;101783.75;;;10.77
14666;BMP280;7420;53.574;10.040;2022-10-13T09:09:20;101780.16;;;10.99
14666;BMP280;7420;53.574;10.040;2022-10-13T09:11:47;101768.13;;;11.03
14666;BMP280;7420;53.574;10.040;2022-10-13T09:16:50;101769.94;;;11.17
14666;BMP280;7420;53.574;10.040;2022-10-13T09:19:29;101764.56;;;11.31
14666;BMP280;7420;53.574;10.040;2022-10-13T09:22:23;101747.38;;;11.34
14666;BMP280;7420;53.574;10.040;2022-10-13T09:27:26;101745.75;;;11.53
14666;BMP280;7420;53.574;10.040;2022-10-13T09:29:51;101746.78;;;11.73
14666;BMP280;7420;53.574;10.040;2022-10-13T09:32:21;101749.13;;;11.83
14666;BMP280;7420;53.574;10.040;2022-10-13T09:34:49;101752.63;;;11.83
14666;BMP280;7420;53.574;10.040;2022-10-13T09:37:21;101758.22;;;11.88
14666;BMP280;7420;53.574;10.040;2022-10-13T09:40:18;101758.53;;;12.06
14666;BMP280;7420;53.574;10.040;2022-10-13T09:42:50;101766.66;;;12.19
14666;BMP280;7420;53.574;10.040;2022-10-13T09:45:18;101758.38;;;12.35
14666;BMP280;7420;53.574;10.040;2022-10-13T09:47:54;101750.94;;;12.64
14666;BMP280;7420;53.574;10.040;2022-10-13T09:50:33;101757.38;;;12.83
14666;BMP280;7420;53.574;10.040;2022-10-13T09:53:16;101763.59;;;12.90
14666;BMP280;7420;53.574;10.040;2022-10-13T09:55:43;101756.81;;;12.87
14666;BMP280;7420;53.574;10.040;2022-10-13T09:58:23;101741.50;;;12.68
14666;BMP280;7420;53.574;10.040;2022-10-13T10:00:50;101747.72;;;12.82
14666;BMP280;7420;53.574;10.040;2022-10-13T10:03:26;101733.41;;;12.89
14666;BMP280;7420;53.574;10.040;2022-10-13T10:08:43;101726.72;;;13.00
14666;BMP280;7420;53.574;10.040;2022-10-13T10:11:39;101734.72;;;13.06
14666;BMP280;7420;53.574;10.040;2022-10-13T10:14:23;101730.38;;;12.92
14666;BMP280;7420;53.574;10.040;2022-10-13T10:16:50;101731.09;;;12.73
14666;BMP280;7420;53.574;10.040;2022-10-13T10:24:50;101724.13;;;12.79
14666;BMP280;7420;53.574;10.040;2022-10-13T10:27:22;101732.97;;;12.86
14666;BMP280;7420;53.574;10.040;2022-10-13T10:35:03;101720.97;;;13.09
14666;BMP280;7420;53.574;10.040;2022-10-13T10:45:40;101704.16;;;13.22
14666;BMP280;7420;53.574;10.040;2022-10-13T10:48:17;101704.38;;;13.20
14666;BMP280;7420;53.574;10.040;2022-10-13T10:50:44;101697.22;;;13.34
14666;BMP280;7420;53.574;10.040;2022-10-13T10:53:26;101697.84;;;13.42
14666;BMP280;7420;53.574;10.040;2022-10-13T10:58:30;101683.69;;;13.61
14666;BMP280;7420;53.574;10.040;2022-10-13T11:01:18;101685.53;;;13.93
14666;BMP280;7420;53.574;10.040;2022-10-13T11:03:55;101677.47;;;14.12
14666;BMP280;7420;53.574;10.040;2022-10-13T11:06:25;101676.66;;;14.31
14666;BMP280;7420;53.574;10.040;2022-10-13T11:08:55;101662.22;;;14.32
14666;BMP280;7420;53.574;10.040;2022-10-13T11:14:00;101662.13;;;14.65
14666;BMP280;7420;53.574;10.040;2022-10-13T11:16:30;101654.44;;;15.12
14666;BMP280;7420;53.574;10.040;2022-10-13T11:19:02;101643.31;;;15.15
14666;BMP280;7420;53.574;10.040;2022-10-13T11:34:59;101619.88;;;15.10
14666;BMP280;7420;53.574;10.040;2022-10-13T11:37:34;101628.84;;;15.22
14666;BMP280;7420;53.574;10.040;2022-10-13T11:45:49;101637.44;;;16.58
14666;BMP280;7420;53.574;10.040;2022-10-13T11:54:02;101619.16;;;17.25
14666;BMP280;7420;53.574;10.040;2022-10-13T11:56:50;101621.31;;;18.15
14666;BMP280;7420;53.574;10.040;2022-10-13T11:59:34;101619.44;;;17.35
14666;BMP280;7420;53.574;10.040;2022-10-13T12:07:01;101616.19;;;16.03
14666;BMP280;7420;53.574;10.040;2022-10-13T12:09:26;101622.97;;;15.87
14666;BMP280;7420;53.574;10.040;2022-10-13T12:12:02;101611.47;;;15.80
14666;BMP280;7420;53.574;10.040;2022-10-13T12:14:37;101609.22;;;16.37
14666;BMP280;7420;53.574;10.040;2022-10-13T12:17:03;101615.31;;;17.33
14666;BMP280;7420;53.574;10.040;2022-10-13T12:19:42;101609.31;;;17.19
14666;BMP280;7420;53.574;10.040;2022-10-13T12:22:11;101612.34;;;16.34
14666;BMP280;7420;53.574;10.040;2022-10-13T12:24:36;101608.75;;;16.05
14666;BMP280;7420;53.574;10.040;2022-10-13T12:27:10;101599.53;;;16.36
14666;BMP280;7420;53.574;10.040;2022-10-13T12:29:38;101594.66;;;16.09
14666;BMP280;7420;53.574;10.040;2022-10-13T12:32:17;101595.47;;;15.92
14666;BMP280;7420;53.574;10.040;2022-10-13T12:34:43;101590.56;;;15.89
14666;BMP280;7420;53.574;10.040;2022-10-13T12:37:27;101600.53;;;16.00
14666;BMP280;7420;53.574;10.040;2022-10-13T12:39:55;101596.84;;;16.18
14666;BMP280;7420;53.574;10.040;2022-10-13T12:42:34;101590.81;;;16.05
14666;BMP280;7420;53.574;10.040;2022-10-13T12:45:01;101591.19;;;16.26
14666;BMP280;7420;53.574;10.040;2022-10-13T12:50:31;101590.72;;;16.65
14666;BMP280;7420;53.574;10.040;2022-10-13T12:53:20;101579.53;;;16.50
14666;BMP280;7420;53.574;10.040;2022-10-13T12:58:20;101578.28;;;15.99
14666;BMP280;7420;53.574;10.040;2022-10-13T13:00:54;101581.56;;;16.01
14666;BMP280;7420;53.574;10.040;2022-10-13T13:03:22;101570.19;;;15.88
14666;BMP280;7420;53.574;10.040;2022-10-13T13:05:49;101577.63;;;15.86
14666;BMP280;7420;53.574;10.040;2022-10-13T13:08:28;101573.78;;;15.75
14666;BMP280;7420;53.574;10.040;2022-10-13T13:11:02;101572.69;;;15.83
14666;BMP280;7420;53.574;10.040;2022-10-13T13:13:29;101577.13;;;15.71
14666;BMP280;7420;53.574;10.040;2022-10-13T13:18:40;101576.69;;;15.74
14666;BMP280;7420;53.574;10.040;2022-10-13T13:21:09;101566.94;;;15.61
14666;BMP280;7420;53.574;10.040;2022-10-13T13:23:35;101575.63;;;15.57
14666;BMP280;7420;53.574;10.040;2022-10-13T13:26:21;101584.00;;;15.42
14666;BMP280;7420;53.574;10.040;2022-10-13T13:28:49;101574.72;;;15.45
14666;BMP280;7420;53.574;10.040;2022-10-13T13:31:20;101567.41;;;15.52
14666;BMP280;7420;53.574;10.040;2022-10-13T13:33:46;101577.84;;;15.42
14666;BMP280;7420;53.574;10.040;2022-10-13T13:36:17;101569.13;;;15.46
14666;BMP280;7420;53.574;10.040;2022-10-13T13:38:43;101573.81;;;15.51
14666;BMP280;7420;53.574;10.040;2022-10-13T13:41:11;101574.13;;;15.43
14666;BMP280;7420;53.574;10.040;2022-10-13T13:43:37;101573.72;;;15.39
14666;BMP280;7420;53.574;10.040;2022-10-13T13:46:04;101582.59;;;15.40
14666;BMP280;7420;53.574;10.040;2022-10-13T13:48:30;101572.50;;;15.35
14666;BMP280;7420;53.574;10.040;2022-10-13T13:50:55;101575.59;;;15.39
14666;BMP280;7420;53.574;10.040;2022-10-13T13:53:20;101572.91;;;15.39
14666;BMP280;7420;53.574;10.040;2022-10-13T13:55:46;101568.16;;;15.41
14666;BMP280;7420;53.574;10.040;2022-10-13T13:58:11;101574.81;;;15.32
14666;BMP280;7420;53.574;10.040;2022-10-13T14:00:37;101562.72;;;15.29
14666;BMP280;7420;53.574;10.040;2022-10-13T14:03:02;101569.91;;;15.29
14666;BMP280;7420;53.574;10.040;2022-10-13T14:05:27;101568.25;;;15.28
14666;BMP280;7420;53.574;10.040;2022-10-13T14:07:54;101571.09;;;15.33
14666;BMP280;7420;53.574;10.040;2022-10-13T14:10:20;101567.38;;;15.34
14666;BMP280;7420;53.574;10.040;2022-10-13T14:12:46;101558.59;;;15.27
14666;BMP280;7420;53.574;10.040;2022-10-13T14:15:11;101566.78;;;15.32
14666;BMP280;7420;53.574;10.040;2022-10-13T14:17:36;101557.72;;;15.33
14666;BMP280;7420;53.574;10.040;2022-10-13T14:20:02;101554.88;;;15.28
14666;BMP280;7420;53.574;10.040;2022-10-13T14:22:27;101553.41;;;15.32
14666;BMP280;7420;53.574;10.040;2022-10-13T14:24:52;101562.47;;;15.31
14666;BMP280;7420;53.574;10.040;2022-10-13T14:27:18;101561.88;;;15.29
14666;BMP280;7420;53.574;10.040;2022-10-13T14:29:43;101557.44;;;15.41
14666;BMP280;7420;53.574;10.040;2022-10-13T14:32:08;101554.16;;;15.39
14666;BMP280;7420;53.574;10.040;2022-10-13T14:34:34;101554.53;;;15.42
14666;BMP280;7420;53.574;10.040;2022-10-13T14:36:59;101557.38;;;15.47
14666;BMP280;7420;53.574;10.040;2022-10-13T14:39:24;101549.13;;;15.49
14666;BMP280;7420;53.574;10.040;2022-10-13T14:41:50;101559.00;;;15.48
14666;BMP280;7420;53.574;10.040;2022-10-13T14:44:16;101545.38;;;15.50
14666;BMP280;7420;53.574;10.040;2022-10-13T14:46:41;101548.66;;;15.52
14666;BMP280;7420;53.574;10.040;2022-10-13T14:49:08;101548.28;;;15.48
14666;BMP280;7420;53.574;10.040;2022-10-13T14:51:33;101545.78;;;15.53
14666;BMP280;7420;53.574;10.040;2022-10-13T14:53:58;101549.16;;;15.42
14666;BMP280;7420;53.574;10.040;2022-10-13T14:56:27;101558.22;;;15.48
14666;BMP280;7420;53.574;10.040;2022-10-13T14:58:58;101544.94;;;15.53
14666;BMP280;7420;53.574;10.040;2022-10-13T15:01:23;101541.22;;;15.54
14666;BMP280;7420;53.574;10.040;2022-10-13T15:03:49;101539.16;;;15.56
14666;BMP280;7420;53.574;10.040;2022-10-13T15:06:17;101536.25;;;15.57
14666;BMP280;7420;53.574;10.040;2022-10-13T15:08:43;101539.28;;;15.43
14666;BMP280;7420;53.574;10.040;2022-10-13T15:11:09;101538.25;;;15.44
14666;BMP280;7420;53.574;10.040;2022-10-13T15:13:35;101544.31;;;15.33
14666;BMP280;7420;53.574;10.040;2022-10-13T15:16:01;101543.72;;;15.31
14666;BMP280;7420;53.574;10.040;2022-10-13T15:18:29;101538.41;;;15.24
14666;BMP280;7420;53.574;10.040;2022-10-13T15:20:55;101538.16;;;15.26
14666;BMP280;7420;53.574;10.040;2022-10-13T15:23:20;101532.22;;;15.24
14666;BMP280;7420;53.574;10.040;2022-10-13T15:25:56;101539.63;;;15.22
14666;BMP280;7420;53.574;10.040;2022-10-13T15:28:24;101536.53;;;15.25
14666;BMP280;7420;53.574;10.040;2022-10-13T15:30:50;101543.53;;;15.26
14666;BMP280;7420;53.574;10.040;2022-10-13T15:33:15;101539.03;;;15.20
14666;BMP280;7420;53.574;10.040;2022-10-13T15:35:41;101540.75;;;15.14
14666;BMP280;7420;53.574;10.040;2022-10-13T15:38:07;101543.63;;;15.13
14666;BMP280;7420;53.574;10.040;2022-10-13T15:40:32;101549.41;;;15.10
14666;BMP280;7420;53.574;10.040;2022-10-13T15:42:58;101540.81;;;15.08
14666;BMP280;7420;53.574;10.040;2022-10-13T15:45:24;101533.81;;;15.07
14666;BMP280;7420;53.574;10.040;2022-10-13T15:47:50;101548.66;;;15.03
14666;BMP280;7420;53.574;10.040;2022-10-13T15:50:15;101536.34;;;14.95
14666;BMP280;7420;53.574;10.040;2022-10-13T15:52:41;101547.47;;;14.99
14666;BMP280;7420;53.574;10.040;2022-10-13T15:55:07;101538.00;;;14.96